createdAt,value
2018-07-17T04:28:22.405Z,4.87
2018-07-17T04:30:55.343Z,4.43
2018-07-17T04:33:27.737Z,4.90
2018-07-17T04:36:00.777Z,4.87
2018-07-17T04:38:33.173Z,4.97
2018-07-17T04:41:05.718Z,5.23
2018-07-17T04:43:38.117Z,6.57
2018-07-17T04:46:10.542Z,5.57
2018-07-17T04:48:42.954Z,5.50
2018-07-17T04:51:15.301Z,6.10
2018-07-17T04:53:47.777Z,6.33
2018-07-17T04:56:25.350Z,5.72
2018-07-17T04:58:58.086Z,5.37
2018-07-17T05:01:30.533Z,5.20
2018-07-17T05:04:03.557Z,5.00
2018-07-17T05:06:36.143Z,5.17
2018-07-17T05:09:08.605Z,5.65
2018-07-17T05:11:41.038Z,5.25
2018-07-17T05:14:13.714Z,4.60
2018-07-17T05:16:46.268Z,5.22
2018-07-17T05:19:18.695Z,5.00
2018-07-17T05:21:51.206Z,4.83
2018-07-17T05:24:25.655Z,4.75
2018-07-17T05:26:58.130Z,5.05
2018-07-17T05:29:30.650Z,4.55
2018-07-17T05:32:02.941Z,3.55
2018-07-17T05:34:35.180Z,4.05
2018-07-17T05:37:07.489Z,5.97
2018-07-17T05:39:39.777Z,5.50
2018-07-17T05:42:12.079Z,5.70
2018-07-17T05:44:44.598Z,5.80
2018-07-17T05:47:16.882Z,4.80
2018-07-17T05:49:49.374Z,4.35
2018-07-17T05:52:21.668Z,4.87
2018-07-17T05:54:54.490Z,4.40
2018-07-17T05:57:26.970Z,3.52
2018-07-17T05:59:59.383Z,4.42
2018-07-17T06:02:32.091Z,4.75
2018-07-17T06:05:04.765Z,4.67
2018-07-17T06:07:37.205Z,7.58
2018-07-17T06:10:09.766Z,6.37
2018-07-17T06:12:42.158Z,5.78
2018-07-17T06:15:14.584Z,4.00
2018-07-17T06:17:46.841Z,3.37
2018-07-17T06:20:19.073Z,3.90
2018-07-17T06:22:51.315Z,4.65
2018-07-17T06:25:23.565Z,4.85
2018-07-17T06:27:56.136Z,4.33
2018-07-17T06:30:28.369Z,3.90
2018-07-17T06:33:00.648Z,3.70
2018-07-17T06:35:32.881Z,3.60
2018-07-17T06:38:05.551Z,3.60
2018-07-17T06:40:37.950Z,4.28
2018-07-17T06:43:10.863Z,3.87
2018-07-17T06:45:43.649Z,4.33
2018-07-17T06:48:16.142Z,3.62
2018-07-17T06:50:48.591Z,4.35
2018-07-17T06:53:21.010Z,5.35
2018-07-17T06:55:53.441Z,5.65
2018-07-17T06:58:26.185Z,6.65
2018-07-17T07:00:58.620Z,8.10
2018-07-17T07:03:31.269Z,6.00
2018-07-17T07:06:03.718Z,6.28
2018-07-17T07:08:36.130Z,7.25
2018-07-17T07:11:08.668Z,5.12
2018-07-17T07:13:41.022Z,4.72
2018-07-17T07:16:13.445Z,4.90
2018-07-17T07:18:45.866Z,4.80
2018-07-17T07:21:18.306Z,4.15
2018-07-17T07:23:50.730Z,4.53
2018-07-17T07:26:23.431Z,4.85
2018-07-17T07:28:55.861Z,4.60
2018-07-17T07:31:28.514Z,5.72
2018-07-17T07:34:01.219Z,3.90
2018-07-17T07:36:34.709Z,5.00
2018-07-17T07:39:07.780Z,4.70
2018-07-17T07:41:40.181Z,4.15
2018-07-17T07:44:12.602Z,4.03
2018-07-17T07:46:45.264Z,4.28
2018-07-17T07:49:17.996Z,4.70
2018-07-17T07:51:50.621Z,4.58
2018-07-17T07:54:23.678Z,4.90
2018-07-17T07:56:56.803Z,4.08
2018-07-17T07:59:29.446Z,4.85
2018-07-17T08:02:01.872Z,5.20
2018-07-17T08:04:34.286Z,5.97
2018-07-17T08:07:06.797Z,4.70
2018-07-17T08:09:39.197Z,5.78
2018-07-17T08:12:11.739Z,4.85
2018-07-17T08:14:44.048Z,4.42
2018-07-17T08:17:16.593Z,4.30
2018-07-17T08:19:49.040Z,6.45
2018-07-17T08:22:21.487Z,8.33
2018-07-17T08:24:54.140Z,6.53
2018-07-17T08:27:27.109Z,4.60
2018-07-17T08:29:59.751Z,7.60
2018-07-17T08:32:32.207Z,5.62
2018-07-17T08:35:04.643Z,5.17
2018-07-17T08:37:37.085Z,5.40
2018-07-17T08:40:09.534Z,6.83
2018-07-17T08:42:41.979Z,5.83
2018-07-17T08:45:14.387Z,7.17
2018-07-17T08:47:46.807Z,5.47
2018-07-17T08:50:19.215Z,4.95
2018-07-17T08:52:51.701Z,4.42
2018-07-17T08:55:24.099Z,5.37
2018-07-17T08:57:56.578Z,6.22
2018-07-17T09:03:07.933Z,5.80
2018-07-17T09:05:40.531Z,6.95
2018-07-17T09:08:13.237Z,4.70
2018-07-17T09:10:45.670Z,5.80
2018-07-17T09:13:18.414Z,6.08
2018-07-17T09:15:51.143Z,5.95
2018-07-17T09:18:23.585Z,4.58
2018-07-17T09:20:56.294Z,5.62
2018-07-17T09:23:28.739Z,4.10
2018-07-17T09:26:01.210Z,4.22
2018-07-17T09:28:33.645Z,3.52
2018-07-17T09:31:06.069Z,5.12
2018-07-17T09:33:38.845Z,4.45
2018-07-17T09:36:11.233Z,3.45
2018-07-17T09:38:43.698Z,3.17
2018-07-17T09:41:16.165Z,2.75
2018-07-17T09:43:48.990Z,3.20
2018-07-17T09:46:21.430Z,2.98
2018-07-17T09:48:54.165Z,3.60
2018-07-17T09:51:26.667Z,3.42
2018-07-17T09:53:59.111Z,2.92
2018-07-17T09:56:31.566Z,3.12
2018-07-17T09:59:04.060Z,2.90
2018-07-17T10:01:36.569Z,3.62
2018-07-17T10:04:09.122Z,3.95
2018-07-17T10:06:41.674Z,3.10
2018-07-17T10:09:14.358Z,3.50
2018-07-17T10:11:47.115Z,3.60
2018-07-17T10:14:19.621Z,3.20
2018-07-17T10:16:52.086Z,3.20
2018-07-17T10:19:24.770Z,3.90
2018-07-17T10:21:57.586Z,2.80
2018-07-17T10:24:31.273Z,3.40
2018-07-17T10:27:03.702Z,3.10
2018-07-17T10:29:36.507Z,2.80
2018-07-17T10:32:09.284Z,2.30
2018-07-17T10:34:41.708Z,2.50
2018-07-17T10:37:14.133Z,5.55
2018-07-17T10:39:46.567Z,2.37
2018-07-17T10:42:19.355Z,2.30
2018-07-17T10:44:52.046Z,2.00
2018-07-17T10:47:24.527Z,2.02
2018-07-17T10:49:57.217Z,2.10
2018-07-17T10:52:29.902Z,2.22
2018-07-17T10:55:02.659Z,1.80
2018-07-17T10:57:35.429Z,1.80
2018-07-17T11:00:07.881Z,2.02
2018-07-17T11:02:40.296Z,1.98
2018-07-17T11:05:12.779Z,1.92
2018-07-17T11:07:45.185Z,1.90
2018-07-17T11:10:17.642Z,2.22
2018-07-17T11:12:50.070Z,2.22
2018-07-17T11:15:22.981Z,2.35
2018-07-17T11:17:55.418Z,2.15
2018-07-17T11:20:27.931Z,2.12
2018-07-17T11:23:00.369Z,1.98
2018-07-17T11:25:32.668Z,1.95
2018-07-17T11:28:05.313Z,2.00
2018-07-17T11:30:37.780Z,2.00
2018-07-17T11:33:10.508Z,2.00
2018-07-17T11:35:42.950Z,1.80
2018-07-17T11:38:15.363Z,1.85
2018-07-17T11:40:48.150Z,1.90
2018-07-17T11:43:20.573Z,1.90
2018-07-17T11:45:53.603Z,2.00
2018-07-17T11:48:26.357Z,2.00
2018-07-17T11:50:58.777Z,1.70
2018-07-17T11:53:31.532Z,1.98
2018-07-17T11:56:03.928Z,1.90
2018-07-17T11:58:36.345Z,1.75
2018-07-17T12:01:08.591Z,1.95
2018-07-17T12:03:40.994Z,2.60
2018-07-17T12:06:13.433Z,2.45
2018-07-17T12:08:45.846Z,2.05
2018-07-17T12:11:18.270Z,2.35
2018-07-17T12:13:51.017Z,2.17
2018-07-17T12:16:23.430Z,2.12
2018-07-17T12:18:55.847Z,2.20
2018-07-17T12:21:28.264Z,2.20
2018-07-17T12:24:01.324Z,2.55
2018-07-17T12:26:33.766Z,2.10
2018-07-17T12:29:06.282Z,2.47
2018-07-17T12:31:38.696Z,3.15
2018-07-17T12:34:11.108Z,2.50
2018-07-17T12:36:43.525Z,2.80
2018-07-17T12:39:16.029Z,2.75
2018-07-17T12:41:48.435Z,2.25
2018-07-17T12:44:20.913Z,2.70
2018-07-17T12:46:53.328Z,2.60
2018-07-17T12:49:26.049Z,2.30
2018-07-17T12:51:58.463Z,2.77
2018-07-17T12:54:30.896Z,2.70
2018-07-17T12:57:04.577Z,2.35
2018-07-17T12:59:37.026Z,2.70
2018-07-17T13:02:09.434Z,2.80
2018-07-17T13:04:41.855Z,2.15
2018-07-17T13:07:14.606Z,2.60
2018-07-17T13:09:47.136Z,2.22
2018-07-17T13:12:19.852Z,2.35
2018-07-17T13:14:52.346Z,2.50
2018-07-17T13:17:24.756Z,2.83
2018-07-17T13:19:57.284Z,2.65
2018-07-17T13:22:29.697Z,2.05
2018-07-17T13:25:02.158Z,3.10
2018-07-17T13:27:34.552Z,2.42
2018-07-17T13:30:06.973Z,2.77
2018-07-17T13:32:39.654Z,2.67
2018-07-17T13:35:12.060Z,2.70
2018-07-17T13:37:44.478Z,2.52
2018-07-17T13:40:16.893Z,2.77
2018-07-17T13:42:49.631Z,2.67
2018-07-17T13:45:22.351Z,2.72
2018-07-17T13:47:54.860Z,2.80
2018-07-17T13:50:27.376Z,2.75
2018-07-17T13:52:59.749Z,2.35
2018-07-17T13:55:32.312Z,3.08
2018-07-17T13:58:04.701Z,2.20
2018-07-17T14:00:37.191Z,2.37
2018-07-17T14:03:09.619Z,2.50
2018-07-17T14:05:42.062Z,3.00
2018-07-17T14:08:14.474Z,2.65
2018-07-17T14:10:47.240Z,2.40
2018-07-17T14:13:19.970Z,2.12
2018-07-17T14:15:52.721Z,2.55
2018-07-17T14:18:25.137Z,2.60
2018-07-17T14:20:57.553Z,2.42
2018-07-17T14:23:30.065Z,2.20
2018-07-17T14:26:02.480Z,2.27
2018-07-17T14:28:34.938Z,2.30
2018-07-17T14:31:07.348Z,2.00
2018-07-17T14:33:39.748Z,2.40
2018-07-17T14:36:12.177Z,2.12
2018-07-17T14:38:44.572Z,2.10
2018-07-17T14:41:17.022Z,2.05
2018-07-17T14:43:49.429Z,1.95
2018-07-17T14:46:22.122Z,2.30
2018-07-17T14:48:54.882Z,1.90
2018-07-17T14:51:27.369Z,2.00
2018-07-17T14:54:00.029Z,2.15
2018-07-17T14:56:32.843Z,2.30
2018-07-17T14:59:05.353Z,2.62
2018-07-17T15:01:37.886Z,2.30
2018-07-17T15:04:10.305Z,2.33
2018-07-17T15:06:42.782Z,2.15
2018-07-17T15:09:15.213Z,2.12
2018-07-17T15:11:47.645Z,2.27
2018-07-17T15:14:20.436Z,2.37
2018-07-17T15:16:52.886Z,1.85
2018-07-17T15:19:25.309Z,2.30
2018-07-17T15:21:58.916Z,2.42
2018-07-17T15:24:31.379Z,2.47
2018-07-17T15:27:03.829Z,2.70
2018-07-17T15:29:36.301Z,2.67
2018-07-17T15:32:08.802Z,2.25
2018-07-17T15:34:41.213Z,2.50
2018-07-17T15:37:14.161Z,2.10
2018-07-17T15:39:46.586Z,2.33
2018-07-17T15:42:19.061Z,2.40
2018-07-17T15:44:51.782Z,2.05
2018-07-17T15:47:24.213Z,2.27
2018-07-17T15:49:56.645Z,2.42
2018-07-17T15:52:29.091Z,2.30
2018-07-17T15:55:01.517Z,2.52
2018-07-17T15:57:34.018Z,2.72
2018-07-17T16:00:06.722Z,2.42
2018-07-17T16:02:39.163Z,2.40
2018-07-17T16:05:11.585Z,2.25
2018-07-17T16:07:44.045Z,2.42
2018-07-17T16:10:16.522Z,2.60
2018-07-17T16:12:48.994Z,3.27
2018-07-17T16:15:21.781Z,2.45
2018-07-17T16:17:54.229Z,2.62
2018-07-17T16:20:26.645Z,2.90
2018-07-17T16:22:59.408Z,2.55
2018-07-17T16:25:31.834Z,2.80
2018-07-17T16:28:04.775Z,2.90
2018-07-17T16:30:37.552Z,3.10
2018-07-17T16:33:10.377Z,3.40
2018-07-17T16:35:42.810Z,3.22
2018-07-17T16:38:15.231Z,3.20
2018-07-17T16:40:47.885Z,3.30
2018-07-17T16:43:20.317Z,3.50
2018-07-17T16:45:52.733Z,3.20
2018-07-17T16:48:25.170Z,3.42
2018-07-17T16:50:57.615Z,3.50
2018-07-17T16:53:30.329Z,3.30
2018-07-17T16:56:03.086Z,3.35
2018-07-17T16:58:35.785Z,3.52
2018-07-17T17:01:08.320Z,3.10
2018-07-17T17:03:40.764Z,3.33
2018-07-17T17:06:13.182Z,3.02
2018-07-17T17:08:45.675Z,2.60
2018-07-17T17:11:18.116Z,3.20
2018-07-17T17:13:50.543Z,3.00
2018-07-17T17:16:22.973Z,3.80
2018-07-17T17:18:55.423Z,3.17
2018-07-17T17:21:27.849Z,2.92
2018-07-17T17:24:00.498Z,2.80
2018-07-17T17:26:32.743Z,2.90
2018-07-17T17:29:05.466Z,4.47
2018-07-17T17:31:37.891Z,4.37
2018-07-17T17:34:10.695Z,3.90
2018-07-17T17:36:43.191Z,4.45
2018-07-17T17:39:15.579Z,10.13
2018-07-17T17:41:48.358Z,4.87
2018-07-17T17:44:21.070Z,6.05
2018-07-17T17:46:53.796Z,4.80
2018-07-17T17:49:26.912Z,5.90
2018-07-17T17:51:59.366Z,6.45
2018-07-17T17:54:31.816Z,6.35
2018-07-17T17:57:04.258Z,5.72
2018-07-17T17:59:37.013Z,5.05
2018-07-17T18:02:09.450Z,4.90
2018-07-17T18:04:41.913Z,5.63
2018-07-17T18:07:15.719Z,4.92
2018-07-17T18:09:49.084Z,5.90
2018-07-17T18:12:22.427Z,5.42
2018-07-17T18:14:55.790Z,5.53
2018-07-17T18:17:29.303Z,5.20
2018-07-17T18:20:02.119Z,5.50
2018-07-17T18:22:34.612Z,5.60
2018-07-17T18:25:07.353Z,5.35
2018-07-17T18:27:39.999Z,5.47
2018-07-17T18:30:12.705Z,5.17
2018-07-17T18:32:45.397Z,6.58
2018-07-17T18:35:17.834Z,6.78
2018-07-17T18:37:50.279Z,5.75
2018-07-17T18:40:22.800Z,5.22
2018-07-17T18:42:55.521Z,5.28
2018-07-17T18:45:27.949Z,5.10
2018-07-17T18:48:00.490Z,5.17
2018-07-17T18:50:32.858Z,4.50
2018-07-17T18:53:05.317Z,5.03
2018-07-17T18:55:37.825Z,4.62
2018-07-17T18:58:10.244Z,5.28
2018-07-17T19:00:42.901Z,4.90
2018-07-17T19:03:15.341Z,4.50
2018-07-17T19:05:47.773Z,4.15
2018-07-17T19:08:20.200Z,4.83
2018-07-17T19:10:52.833Z,4.85
2018-07-17T19:13:25.450Z,5.00
2018-07-17T19:15:57.843Z,5.00
2018-07-17T19:18:30.313Z,4.35
2018-07-17T19:21:02.775Z,4.05
2018-07-17T19:23:35.226Z,3.95
2018-07-17T19:26:07.884Z,4.47
2018-07-17T19:28:40.925Z,3.83
2018-07-17T19:31:13.561Z,4.15
2018-07-17T19:33:46.111Z,12.00
2018-07-17T19:36:18.615Z,4.62
2018-07-17T19:38:51.084Z,5.00
2018-07-17T19:41:23.487Z,4.50
2018-07-17T19:43:55.950Z,4.30
2018-07-17T19:46:28.359Z,4.17
2018-07-17T19:49:00.885Z,4.45
2018-07-17T19:51:33.309Z,4.50
2018-07-17T19:54:06.650Z,4.30
2018-07-17T19:56:39.109Z,4.70
2018-07-17T19:59:11.585Z,4.22
2018-07-17T20:01:44.265Z,5.47
2018-07-17T20:04:16.734Z,5.40
2018-07-17T20:06:49.167Z,4.53
2018-07-17T20:09:21.651Z,4.50
2018-07-17T20:11:54.120Z,4.80
2018-07-17T20:14:26.585Z,5.10
2018-07-17T20:16:59.030Z,4.78
2018-07-17T20:19:31.774Z,4.55
2018-07-17T20:22:04.810Z,5.17
2018-07-17T20:24:37.537Z,5.00
2018-07-17T20:27:10.043Z,4.93
2018-07-17T20:29:42.493Z,5.00
